Time;durP1;ratioP1;P1;durP2;ratioP2;P2;SDS_P1;SDS_P2;PMS_P1;PMS_P2;Temp;Humidity;BMP_temperature;BMP_pressure;BME280_temperature;BME280_humidity;BME280_pressure;Samples;Min_cycle;Max_cycle;Signal;HPM_P1;HPM_P2
2023/03/14 00:02:05;;;;;;;;;1.00;1.00;;;;;11.76;71.79;97413.72;5095327;28;8881;-58
2023/03/14 00:04:33;;;;;;;;;0.25;0.25;;;;;11.72;72.15;97415.09;5095109;28;8826;-59
2023/03/14 00:07:01;;;;;;;;;0.00;0.00;;;;;11.71;72.77;97408.97;5095321;28;8834;-60
2023/03/14 00:09:29;;;;;;;;;0.00;0.00;;;;;11.69;72.70;97413.63;5095031;28;8830;-60
2023/03/14 00:11:57;;;;;;;;;0.00;0.00;;;;;11.70;72.54;97407.31;5082287;28;8845;-57
2023/03/14 00:14:25;;;;;;;;;0.00;0.00;;;;;11.71;72.39;97413.44;5067909;28;8838;-58
2023/03/14 00:16:53;;;;;;;;;0.75;0.75;;;;;11.71;72.22;97408.13;5068031;28;8872;-57
2023/03/14 00:19:20;;;;;;;;;0.00;0.00;;;;;11.71;72.23;97408.97;5068689;28;8837;-58
2023/03/14 00:21:48;;;;;;;;;0.00;0.00;;;;;11.71;72.40;97390.28;5076028;28;8830;-58
2023/03/14 00:24:15;;;;;;;;;1.00;0.00;;;;;11.68;72.08;97393.31;5095369;28;8818;-58
2023/03/14 00:26:43;;;;;;;;;0.00;0.00;;;;;11.68;72.13;97390.66;5082973;28;8851;-57
2023/03/14 00:29:11;;;;;;;;;0.00;0.00;;;;;11.64;72.52;97399.22;5071768;28;8826;-59
2023/03/14 00:31:41;;;;;;;;;0.00;0.00;;;;;11.61;72.48;97397.78;5071485;28;8868;-57
2023/03/14 00:34:08;;;;;;;;;0.00;0.00;;;;;11.60;72.56;97405.97;5072279;28;8862;-58
2023/03/14 00:36:36;;;;;;;;;0.00;0.00;;;;;11.63;72.10;97403.75;5083366;28;8833;-58
2023/03/14 00:39:06;;;;;;;;;0.00;0.00;;;;;11.67;72.54;97407.69;5098183;28;8860;-58
2023/03/14 00:41:34;;;;;;;;;1.00;0.50;;;;;11.68;72.11;97409.31;5098645;28;8822;-60
2023/03/14 00:44:01;;;;;;;;;0.00;0.00;;;;;11.72;71.98;97413.28;5082657;28;8834;-57
2023/03/14 00:46:29;;;;;;;;;1.00;1.00;;;;;11.73;72.49;97428.25;5072113;28;8892;-60
2023/03/14 00:48:57;;;;;;;;;0.00;0.00;;;;;11.74;71.94;97427.22;5070596;28;9546;-60
2023/03/14 00:51:25;;;;;;;;;0.00;0.00;;;;;11.76;71.91;97398.53;5083756;28;8822;-60
2023/03/14 00:53:53;;;;;;;;;0.00;0.00;;;;;11.76;71.28;97395.06;5098942;28;9588;-60
2023/03/14 00:56:20;;;;;;;;;0.75;0.75;;;;;11.76;71.79;97406.53;5098308;28;8836;-60
2023/03/14 00:58:48;;;;;;;;;1.00;0.50;;;;;11.78;72.08;97409.84;5098423;28;8825;-59
2023/03/14 01:01:16;;;;;;;;;0.00;0.00;;;;;11.82;71.91;97403.09;5098120;28;8822;-60
2023/03/14 01:03:44;;;;;;;;;0.00;0.00;;;;;11.83;71.44;97383.41;5098363;28;8822;-60
2023/03/14 01:06:12;;;;;;;;;0.00;0.00;;;;;11.88;71.88;97383.66;5097994;28;8830;-59
2023/03/14 01:08:39;;;;;;;;;0.00;0.00;;;;;11.91;71.44;97398.47;5098546;28;8856;-60
2023/03/14 01:11:07;;;;;;;;;2.50;1.00;;;;;11.92;71.51;97373.44;5098105;28;8948;-60
2023/03/14 01:13:34;;;;;;;;;0.00;0.00;;;;;11.95;71.45;97379.22;5097376;28;8818;-61
2023/03/14 01:16:02;;;;;;;;;0.00;0.00;;;;;11.98;71.52;97380.69;5098226;28;8842;-61
2023/03/14 01:18:30;;;;;;;;;0.00;0.00;;;;;12.01;70.91;97389.13;5098071;28;8837;-60
2023/03/14 01:20:58;;;;;;;;;0.00;0.00;;;;;12.02;70.92;97396.91;5097717;28;8826;-59
2023/03/14 01:23:26;;;;;;;;;0.00;0.00;;;;;12.00;70.65;97382.13;5097551;28;8850;-60
2023/03/14 01:25:53;;;;;;;;;0.00;0.00;;;;;11.98;71.40;97391.34;5098068;28;8832;-60
2023/03/14 01:28:21;;;;;;;;;0.00;0.00;;;;;11.97;71.13;97361.16;5097827;28;8810;-60
2023/03/14 01:30:49;;;;;;;;;0.00;0.00;;;;;11.99;71.13;97375.13;5102266;28;8893;-60
2023/03/14 01:33:17;;;;;;;;;1.00;0.75;;;;;11.80;71.50;97381.16;5098313;28;8838;-60
2023/03/14 01:35:44;;;;;;;;;0.50;0.50;;;;;11.55;72.44;97398.53;5097860;28;8875;-61
2023/03/14 01:38:12;;;;;;;;;0.00;0.00;;;;;11.31;73.15;97441.50;5096880;28;8814;-59
2023/03/14 01:40:40;;;;;;;;;0.00;0.00;;;;;11.08;73.36;97472.78;5097484;28;8814;-61
2023/03/14 01:43:07;;;;;;;;;0.00;0.00;;;;;10.67;74.41;97492.06;5098111;28;8837;-59
2023/03/14 01:45:35;;;;;;;;;0.00;0.00;;;;;10.29;75.52;97471.81;5098544;28;9522;-59
2023/03/14 01:48:03;;;;;;;;;0.00;0.00;;;;;10.04;76.53;97473.91;5097850;28;8810;-59
2023/03/14 01:50:30;;;;;;;;;0.00;0.00;;;;;9.89;77.24;97491.59;5097490;28;8911;-58
2023/03/14 01:52:58;;;;;;;;;0.00;0.00;;;;;9.75;77.52;97444.53;5097420;28;8829;-58
2023/03/14 01:55:26;;;;;;;;;0.00;0.00;;;;;9.62;77.60;97433.66;5097370;28;8837;-57
2023/03/14 01:57:53;;;;;;;;;0.00;0.00;;;;;9.50;77.90;97439.56;5068067;28;8838;-58
2023/03/14 02:00:21;;;;;;;;;0.00;0.00;;;;;9.41;78.16;97445.94;5069749;28;9183;-57
2023/03/14 02:02:50;;;;;;;;;0.00;0.00;;;;;9.32;78.23;97434.53;5068986;28;9137;-57
2023/03/14 02:05:19;;;;;;;;;0.00;0.00;;;;;9.21;78.38;97429.66;5068748;28;8826;-57
2023/03/14 02:07:47;;;;;;;;;0.00;0.00;;;;;9.13;79.16;97420.88;5069130;28;8857;-57
2023/03/14 02:10:14;;;;;;;;;0.00;0.00;;;;;9.07;78.85;97414.47;5068887;28;9476;-58
2023/03/14 02:12:42;;;;;;;;;0.00;0.00;;;;;9.03;79.71;97405.19;5069387;28;8872;-57
2023/03/14 02:15:10;;;;;;;;;0.00;0.00;;;;;8.99;79.14;97397.75;5068976;28;8874;-57
2023/03/14 02:17:38;;;;;;;;;0.00;0.00;;;;;8.97;79.58;97408.53;5068631;28;8838;-58
2023/03/14 02:20:06;;;;;;;;;0.00;0.00;;;;;8.95;79.92;97407.88;5069679;28;8876;-58
2023/03/14 02:22:33;;;;;;;;;0.00;0.00;;;;;8.94;79.84;97406.22;5096502;28;8826;-58
2023/03/14 02:25:01;;;;;;;;;0.00;0.00;;;;;8.96;80.33;97400.75;5096986;28;8837;-57
2023/03/14 02:27:29;;;;;;;;;0.00;0.00;;;;;8.99;80.75;97411.00;5074876;28;8826;-57
2023/03/14 02:29:56;;;;;;;;;0.00;0.00;;;;;9.02;80.30;97413.31;5079788;28;8837;-59
2023/03/14 02:32:24;;;;;;;;;0.00;0.00;;;;;9.06;80.12;97412.81;5097009;28;8825;-58
2023/03/14 02:34:52;;;;;;;;;0.00;0.00;;;;;9.10;80.49;97421.22;5096516;28;8818;-58
2023/03/14 02:37:19;;;;;;;;;0.00;0.00;;;;;9.17;80.29;97409.75;5096522;28;8814;-58
2023/03/14 02:39:48;;;;;;;;;0.00;0.00;;;;;9.20;80.06;97404.06;5096343;28;8810;-58
2023/03/14 02:42:16;;;;;;;;;0.00;0.00;;;;;9.23;80.29;97395.78;5096471;28;8841;-58
2023/03/14 02:44:44;;;;;;;;;0.00;0.00;;;;;9.27;79.98;97398.91;5096981;28;8858;-59
2023/03/14 02:47:12;;;;;;;;;0.00;0.00;;;;;9.29;79.51;97396.88;5096412;28;8918;-58
2023/03/14 02:49:40;;;;;;;;;0.00;0.00;;;;;9.33;79.84;97401.66;5096510;28;8857;-58
2023/03/14 02:52:08;;;;;;;;;0.50;0.50;;;;;9.37;79.93;97391.50;5096575;28;8838;-58
2023/03/14 02:54:35;;;;;;;;;0.00;0.00;;;;;9.41;80.19;97390.97;5096314;28;8895;-58
2023/03/14 02:57:03;;;;;;;;;0.00;0.00;;;;;9.43;79.78;97394.28;5095950;28;8837;-58
2023/03/14 02:59:31;;;;;;;;;0.00;0.00;;;;;9.47;79.39;97384.97;5096157;28;8834;-59
2023/03/14 03:01:58;;;;;;;;;0.00;0.00;;;;;9.50;79.62;97386.44;5096296;28;8822;-58
2023/03/14 03:04:26;;;;;;;;;0.00;0.00;;;;;9.52;80.15;97387.09;5096203;28;8869;-58
2023/03/14 03:06:54;;;;;;;;;0.00;0.00;;;;;9.53;79.87;97386.91;5096342;28;8822;-58
2023/03/14 03:09:22;;;;;;;;;0.00;0.00;;;;;9.53;79.93;97386.06;5095431;28;8844;-58
2023/03/14 03:11:50;;;;;;;;;0.00;0.00;;;;;9.56;79.71;97385.75;5095962;28;8822;-57
2023/03/14 03:14:17;;;;;;;;;0.00;0.00;;;;;9.58;79.50;97389.03;5096257;28;9501;-59
2023/03/14 03:16:45;;;;;;;;;0.00;0.00;;;;;9.59;80.23;97374.75;5096380;28;8926;-59
2023/03/14 03:19:13;;;;;;;;;0.00;0.00;;;;;9.61;80.15;97372.72;5095932;28;8821;-59
2023/03/14 03:21:41;;;;;;;;;0.00;0.00;;;;;9.63;80.23;97360.13;5096154;28;8830;-58
2023/03/14 03:24:09;;;;;;;;;0.00;0.00;;;;;9.64;79.75;97370.53;5095798;28;8865;-58
2023/03/14 03:26:36;;;;;;;;;0.00;0.00;;;;;9.69;79.47;97357.56;5095823;28;8849;-57
2023/03/14 03:29:04;;;;;;;;;0.00;0.00;;;;;9.77;79.72;97365.44;5095786;28;8834;-59
2023/03/14 03:31:32;;;;;;;;;0.00;0.00;;;;;9.81;79.41;97356.09;5095634;28;8822;-59
2023/03/14 03:34:00;;;;;;;;;0.00;0.00;;;;;9.86;79.38;97361.69;5095849;28;8830;-58
2023/03/14 03:36:28;;;;;;;;;0.00;0.00;;;;;9.88;79.13;97357.03;5095690;28;8832;-56
2023/03/14 03:38:55;;;;;;;;;0.00;0.00;;;;;9.92;79.19;97360.16;5095491;28;8837;-58
2023/03/14 03:41:23;;;;;;;;;0.00;0.00;;;;;9.95;78.88;97352.63;5077165;28;9210;-58
2023/03/14 03:43:51;;;;;;;;;0.00;0.00;;;;;9.99;79.23;97347.78;5076917;28;8845;-59
2023/03/14 03:46:18;;;;;;;;;0.00;0.00;;;;;9.99;79.57;97343.31;5096465;28;8857;-59
2023/03/14 03:48:46;;;;;;;;;0.00;0.00;;;;;9.99;79.15;97342.47;5095787;28;8853;-59
2023/03/14 03:51:14;;;;;;;;;0.00;0.00;;;;;9.95;79.61;97339.34;5096025;28;8899;-58
2023/03/14 03:53:42;;;;;;;;;1.50;0.00;;;;;9.92;79.98;97333.56;5096017;28;8830;-58
2023/03/14 03:56:11;;;;;;;;;0.00;0.00;;;;;9.89;79.47;97331.28;5096083;28;8826;-58
2023/03/14 03:58:39;;;;;;;;;0.50;0.00;;;;;9.90;79.47;97330.28;5096090;28;8845;-59
2023/03/14 04:01:07;;;;;;;;;0.50;0.50;;;;;9.90;79.49;97331.13;5095360;28;8850;-58
2023/03/14 04:03:34;;;;;;;;;0.00;0.00;;;;;9.88;79.55;97343.72;5099663;28;8823;-58
2023/03/14 04:06:02;;;;;;;;;1.00;1.00;;;;;9.87;79.99;97342.09;5099753;28;8814;-58
2023/03/14 04:08:30;;;;;;;;;0.00;0.00;;;;;9.84;79.96;97349.59;5099163;28;8902;-58
2023/03/14 04:10:58;;;;;;;;;0.00;0.00;;;;;9.79;79.79;97352.81;5098910;28;8838;-58
2023/03/14 04:13:26;;;;;;;;;0.00;0.00;;;;;9.73;80.08;97353.50;5098706;28;8897;-59
2023/03/14 04:15:53;;;;;;;;;0.00;0.00;;;;;9.67;80.09;97359.56;5099148;28;8842;-57
2023/03/14 04:18:21;;;;;;;;;0.00;0.00;;;;;9.60;80.18;97368.44;5098938;28;8838;-56
2023/03/14 04:20:49;;;;;;;;;0.25;0.00;;;;;9.52;80.76;97361.38;5098737;28;8810;-58
2023/03/14 04:23:17;;;;;;;;;0.00;0.00;;;;;9.45;81.20;97368.38;5098949;28;8833;-58
2023/03/14 04:25:44;;;;;;;;;0.00;0.00;;;;;9.38;81.19;97362.13;5099350;28;8858;-59
2023/03/14 04:28:12;;;;;;;;;0.00;0.00;;;;;9.34;81.28;97358.16;5099203;28;8883;-59
2023/03/14 04:30:39;;;;;;;;;0.50;0.00;;;;;9.31;81.21;97357.69;5098981;28;8892;-58
2023/03/14 04:33:07;;;;;;;;;0.00;0.00;;;;;9.27;81.48;97362.53;5098891;28;8834;-58
2023/03/14 04:35:35;;;;;;;;;0.00;0.00;;;;;9.25;81.11;97361.91;5098767;28;8845;-58
2023/03/14 04:38:03;;;;;;;;;0.00;0.00;;;;;9.22;81.39;97354.28;5098954;28;8845;-58
2023/03/14 04:40:31;;;;;;;;;0.00;0.00;;;;;9.21;81.79;97341.19;5098764;28;8837;-58
2023/03/14 04:43:06;;;;;;;;;0.00;0.00;;;;;9.18;81.96;97342.38;5098930;28;8822;-57
2023/03/14 04:45:34;;;;;;;;;0.00;0.00;;;;;9.15;81.64;97332.09;5098373;28;8842;-58
2023/03/14 04:48:02;;;;;;;;;0.00;0.00;;;;;9.15;81.49;97332.09;5098724;28;9495;-57
2023/03/14 04:50:29;;;;;;;;;0.50;0.50;;;;;9.14;81.85;97319.84;5098278;28;8923;-58
2023/03/14 04:52:57;;;;;;;;;0.00;0.00;;;;;9.14;81.82;97314.53;5098192;28;8834;-58
2023/03/14 04:55:25;;;;;;;;;0.00;0.00;;;;;9.14;81.58;97319.84;5097902;28;8907;-58
2023/03/14 04:57:52;;;;;;;;;0.00;0.00;;;;;9.14;81.58;97305.72;5098437;28;8830;-58
2023/03/14 05:00:20;;;;;;;;;0.00;0.00;;;;;9.14;81.80;97301.25;5098512;28;9531;-58
2023/03/14 05:02:48;;;;;;;;;0.50;0.50;;;;;9.14;81.30;97306.56;5098202;28;8826;-58
2023/03/14 05:05:16;;;;;;;;;0.00;0.00;;;;;9.16;81.64;97309.88;5097948;28;8845;-58
2023/03/14 05:07:44;;;;;;;;;1.00;1.00;;;;;9.15;81.45;97300.25;5098274;28;8857;-58
2023/03/14 05:10:11;;;;;;;;;0.00;0.00;;;;;9.17;81.30;97297.41;5097662;28;8830;-57
2023/03/14 05:12:39;;;;;;;;;1.00;1.00;;;;;9.18;81.33;97288.47;5097419;28;8821;-57
2023/03/14 05:15:07;;;;;;;;;0.00;0.00;;;;;9.17;81.63;97279.66;5097835;28;9495;-58
2023/03/14 05:17:34;;;;;;;;;0.00;0.00;;;;;9.16;82.01;97270.03;5098227;28;8833;-58
2023/03/14 05:20:04;;;;;;;;;1.00;1.00;;;;;9.17;81.85;97276.16;5098257;28;8828;-58
2023/03/14 05:22:31;;;;;;;;;0.00;0.00;;;;;9.19;81.82;97274.19;5097500;28;8818;-58
2023/03/14 05:25:00;;;;;;;;;0.50;0.50;;;;;9.19;82.14;97267.03;5097886;28;8810;-58
2023/03/14 05:27:27;;;;;;;;;0.00;0.00;;;;;9.21;82.16;97266.84;5097289;28;8841;-58
2023/03/14 05:29:55;;;;;;;;;0.50;0.00;;;;;9.23;82.48;97272.78;5097516;28;8822;-57
2023/03/14 05:32:22;;;;;;;;;0.00;0.00;;;;;9.25;82.33;97268.13;5097118;28;8830;-57
2023/03/14 05:34:50;;;;;;;;;2.50;0.00;;;;;9.27;82.58;97261.63;5097375;28;8933;-57
2023/03/14 05:37:18;;;;;;;;;0.00;0.00;;;;;9.29;82.70;97257.00;5097226;28;8876;-58
2023/03/14 05:39:46;;;;;;;;;0.00;0.00;;;;;9.33;83.23;97263.56;5097253;28;8840;-57
2023/03/14 05:42:14;;;;;;;;;0.00;0.00;;;;;9.40;82.65;97255.69;5097613;28;8865;-57
2023/03/14 05:44:41;;;;;;;;;0.00;0.00;;;;;9.46;82.39;97255.81;5096770;28;9520;-58
2023/03/14 05:47:09;;;;;;;;;1.00;1.00;;;;;9.53;82.07;97264.72;5096375;28;8851;-58
2023/03/14 05:49:37;;;;;;;;;0.00;0.00;;;;;9.58;82.25;97249.03;5096335;28;8923;-57
2023/03/14 05:52:05;;;;;;;;;0.00;0.00;;;;;9.63;82.49;97264.47;5094000;28;8861;-57
2023/03/14 05:54:32;;;;;;;;;2.50;0.50;;;;;9.69;82.15;97258.41;5094154;28;8838;-58
2023/03/14 05:57:00;;;;;;;;;0.25;0.00;;;;;9.71;81.67;97249.25;5094442;28;8822;-58
2023/03/14 05:59:28;;;;;;;;;1.00;1.00;;;;;9.73;82.23;97241.91;5094706;28;8818;-59
2023/03/14 06:01:56;;;;;;;;;0.00;0.00;;;;;9.74;81.89;97259.53;5095685;28;8848;-58
2023/03/14 06:04:24;;;;;;;;;0.00;0.00;;;;;9.78;81.66;97260.81;5095589;28;8940;-57
2023/03/14 06:06:51;;;;;;;;;0.00;0.00;;;;;9.82;81.92;97255.94;5095582;28;8830;-58
2023/03/14 06:09:22;;;;;;;;;0.00;0.00;;;;;9.85;81.96;97245.78;5095970;28;8869;-58
2023/03/14 06:11:50;;;;;;;;;0.00;0.00;;;;;9.88;81.88;97250.72;5095420;28;8834;-58
2023/03/14 06:14:18;;;;;;;;;0.00;0.00;;;;;9.91;81.99;97241.53;5094545;28;8833;-58
2023/03/14 06:16:47;;;;;;;;;0.00;0.00;;;;;9.91;81.77;97252.19;5094222;28;8864;-55
2023/03/14 06:19:15;;;;;;;;;0.00;0.00;;;;;9.87;81.88;97257.03;5095155;28;8826;-58
2023/03/14 06:21:43;;;;;;;;;0.00;0.00;;;;;9.81;82.08;97243.66;5094691;28;9629;-58
2023/03/14 06:24:11;;;;;;;;;0.00;0.00;;;;;9.73;82.69;97239.25;5093863;28;8826;-58
2023/03/14 06:26:38;;;;;;;;;0.50;0.50;;;;;9.67;83.22;97244.47;5093017;28;8842;-58
2023/03/14 06:29:06;;;;;;;;;0.00;0.00;;;;;9.62;83.43;97231.75;5093414;28;8818;-58
2023/03/14 06:31:34;;;;;;;;;0.00;0.00;;;;;9.58;83.43;97241.06;5093195;28;8836;-59
2023/03/14 06:34:02;;;;;;;;;0.00;0.00;;;;;9.56;83.38;97245.75;5092179;28;8830;-58
2023/03/14 06:36:29;;;;;;;;;0.00;0.00;;;;;9.58;83.54;97243.72;5092927;28;8818;-58
2023/03/14 06:38:57;;;;;;;;;0.00;0.00;;;;;9.62;83.66;97242.38;5092174;28;8822;-59
2023/03/14 06:41:26;;;;;;;;;0.00;0.00;;;;;9.67;83.59;97241.81;5092851;28;8830;-60
2023/03/14 06:43:54;;;;;;;;;0.00;0.00;;;;;9.75;83.02;97255.84;5093998;28;9554;-59
2023/03/14 06:46:23;;;;;;;;;0.25;0.25;;;;;9.81;83.39;97236.50;5092755;28;8876;-58
2023/03/14 06:48:51;;;;;;;;;0.00;0.00;;;;;9.91;83.00;97245.03;5093161;28;8830;-56
2023/03/14 06:51:19;;;;;;;;;0.00;0.00;;;;;9.99;82.76;97246.75;5091180;28;8826;-59
2023/03/14 06:53:46;;;;;;;;;0.00;0.00;;;;;10.04;82.74;97245.25;5090163;28;8854;-57
2023/03/14 06:56:14;;;;;;;;;0.00;0.00;;;;;10.09;82.95;97237.53;5091085;28;8845;-58
2023/03/14 06:58:42;;;;;;;;;0.00;0.00;;;;;10.13;82.52;97246.81;5090384;28;8830;-58
2023/03/14 07:01:10;;;;;;;;;0.00;0.00;;;;;10.18;82.51;97255.03;5088643;28;9580;-58
2023/03/14 07:03:37;;;;;;;;;0.00;0.00;;;;;10.19;82.13;97243.41;5089012;28;8826;-57
2023/03/14 07:06:06;;;;;;;;;0.00;0.00;;;;;10.17;82.24;97242.75;5089381;28;8947;-58
2023/03/14 07:08:34;;;;;;;;;0.00;0.00;;;;;10.12;82.58;97249.63;5091038;28;8871;-58
2023/03/14 07:11:02;;;;;;;;;0.00;0.00;;;;;10.14;82.27;97247.59;5089947;28;8899;-57
2023/03/14 07:13:30;;;;;;;;;0.00;0.00;;;;;10.24;82.12;97251.63;5089850;28;8837;-58
2023/03/14 07:15:57;;;;;;;;;0.00;0.00;;;;;10.27;82.22;97261.91;5090194;28;9668;-58
2023/03/14 07:18:25;;;;;;;;;0.00;0.00;;;;;10.17;82.07;97264.03;5091680;28;8918;-57
2023/03/14 07:20:53;;;;;;;;;0.00;0.00;;;;;10.07;82.38;97262.66;5091571;28;8833;-57
2023/03/14 07:23:21;;;;;;;;;0.00;0.00;;;;;9.99;82.71;97266.22;5091684;28;8914;-57
2023/03/14 07:25:48;;;;;;;;;0.00;0.00;;;;;9.93;83.02;97272.25;5091020;28;8833;-57
2023/03/14 07:28:17;;;;;;;;;0.00;0.00;;;;;9.92;83.29;97283.06;5092981;28;8849;-58
2023/03/14 07:30:44;;;;;;;;;0.00;0.00;;;;;9.89;83.21;97273.66;5091636;28;8984;-59
2023/03/14 07:33:12;;;;;;;;;0.00;0.00;;;;;9.89;83.04;97271.00;5091143;28;8899;-59
2023/03/14 07:35:40;;;;;;;;;0.00;0.00;;;;;9.88;82.98;97276.47;5092183;28;8826;-59
2023/03/14 07:38:08;;;;;;;;;0.00;0.00;;;;;9.88;82.88;97277.28;5091879;28;8902;-59
2023/03/14 07:40:36;;;;;;;;;0.00;0.00;;;;;9.87;82.63;97278.31;5093655;28;8883;-59
2023/03/14 07:43:04;;;;;;;;;0.00;0.00;;;;;9.84;83.42;97285.81;5094641;28;8984;-58
2023/03/14 07:45:32;;;;;;;;;0.00;0.00;;;;;9.83;83.69;97271.72;5093374;28;8961;-59
2023/03/14 07:48:09;;;;;;;;;0.00;0.00;;;;;9.88;83.27;97279.13;5091946;28;8852;-59
2023/03/14 07:50:37;;;;;;;;;0.00;0.00;;;;;9.98;82.96;97280.53;5092272;28;8971;-59
2023/03/14 07:53:05;;;;;;;;;0.00;0.00;;;;;10.07;83.03;97274.13;5090879;28;8972;-59
2023/03/14 07:55:33;;;;;;;;;0.00;0.00;;;;;10.14;82.78;97267.06;5090842;28;8826;-59
2023/03/14 07:58:01;;;;;;;;;0.00;0.00;;;;;10.22;82.60;97268.78;5090755;28;8853;-59
2023/03/14 08:00:29;;;;;;;;;0.00;0.00;;;;;10.30;82.30;97266.00;5089604;28;8839;-59
2023/03/14 08:02:57;;;;;;;;;0.00;0.00;;;;;10.41;82.22;97268.22;5090812;28;8826;-59
2023/03/14 08:05:25;;;;;;;;;0.00;0.00;;;;;10.47;82.28;97273.59;5092020;28;8845;-59
2023/03/14 08:07:53;;;;;;;;;0.00;0.00;;;;;10.55;82.04;97289.47;5091502;28;8842;-60
2023/03/14 08:10:23;;;;;;;;;0.00;0.00;;;;;10.56;82.07;97277.00;5092289;28;8853;-59
2023/03/14 08:12:52;;;;;;;;;0.00;0.00;;;;;10.52;81.91;97278.38;5091170;28;8864;-57
2023/03/14 08:15:19;;;;;;;;;0.00;0.00;;;;;10.49;81.84;97281.41;5092712;28;8850;-58
2023/03/14 08:17:50;;;;;;;;;0.00;0.00;;;;;10.49;81.81;97282.25;5091739;28;8841;-58
2023/03/14 08:20:18;;;;;;;;;0.00;0.00;;;;;10.52;81.76;97292.50;5092439;28;9507;-59
2023/03/14 08:22:46;;;;;;;;;0.00;0.00;;;;;10.54;81.72;97292.31;5091938;28;8918;-59
2023/03/14 08:25:14;;;;;;;;;0.00;0.00;;;;;10.61;81.87;97282.59;5093015;28;8829;-59
2023/03/14 08:27:42;;;;;;;;;1.00;0.00;;;;;10.66;81.74;97286.31;5092539;28;8849;-59
2023/03/14 08:30:10;;;;;;;;;0.00;0.00;;;;;10.72;81.94;97288.25;5092583;28;8849;-58
2023/03/14 08:32:38;;;;;;;;;0.00;0.00;;;;;10.77;81.48;97285.03;5091957;28;8838;-59
2023/03/14 08:35:06;;;;;;;;;0.00;0.00;;;;;10.77;81.79;97295.66;5092011;28;8830;-59
2023/03/14 08:37:34;;;;;;;;;0.00;0.00;;;;;10.77;81.76;97285.81;5091961;28;8830;-57
2023/03/14 08:40:06;;;;;;;;;0.00;0.00;;;;;10.82;81.90;97293.25;5091469;28;8830;-58
2023/03/14 08:42:33;;;;;;;;;1.00;1.00;;;;;10.89;81.52;97296.81;5090126;28;8914;-59
2023/03/14 08:45:01;;;;;;;;;0.00;0.00;;;;;10.95;81.81;97296.06;5090770;28;8842;-59
2023/03/14 08:47:29;;;;;;;;;0.00;0.00;;;;;10.99;81.23;97306.13;5091112;28;9188;-59
2023/03/14 08:49:58;;;;;;;;;0.50;0.00;;;;;10.97;81.44;97296.69;5094590;28;8830;-59
2023/03/14 08:52:26;;;;;;;;;0.00;0.00;;;;;10.95;81.42;97302.22;5095296;28;8848;-58
2023/03/14 08:54:54;;;;;;;;;0.75;0.25;;;;;10.91;81.53;97302.78;5094910;28;8837;-60
2023/03/14 08:57:27;;;;;;;;;0.00;0.00;;;;;10.89;81.86;97300.31;5094512;28;8842;-59
2023/03/14 08:59:55;;;;;;;;;0.00;0.00;;;;;10.88;82.00;97301.31;5095688;28;8850;-57
2023/03/14 09:02:23;;;;;;;;;2.00;0.75;;;;;10.93;82.02;97317.53;5095721;28;9127;-57
2023/03/14 09:04:52;;;;;;;;;1.00;0.00;;;;;10.98;82.04;97308.97;5095428;28;8822;-56
2023/03/14 09:07:19;;;;;;;;;0.00;0.00;;;;;11.02;81.53;97303.13;5096469;28;8887;-56
2023/03/14 09:09:48;;;;;;;;;0.00;0.00;;;;;11.08;81.97;97304.19;5094244;28;8830;-57
2023/03/14 09:12:15;;;;;;;;;0.00;0.00;;;;;11.09;81.55;97303.16;5095027;28;9551;-58
2023/03/14 09:14:43;;;;;;;;;0.50;0.00;;;;;11.10;81.08;97300.31;5095399;28;8854;-57
2023/03/14 09:17:11;;;;;;;;;0.00;0.00;;;;;11.10;81.26;97302.97;5093861;28;8837;-58
2023/03/14 09:19:39;;;;;;;;;0.00;0.00;;;;;11.12;81.30;97316.09;5092480;28;8830;-57
2023/03/14 09:22:07;;;;;;;;;0.75;0.75;;;;;11.19;81.05;97311.66;5091353;28;8814;-59
2023/03/14 09:24:35;;;;;;;;;0.00;0.00;;;;;11.29;81.12;97318.31;5092250;28;8818;-59
2023/03/14 09:27:03;;;;;;;;;0.00;0.00;;;;;11.39;80.92;97313.47;5092097;28;8975;-59
2023/03/14 09:29:31;;;;;;;;;0.00;0.00;;;;;11.46;80.62;97314.38;5093372;28;8838;-59
2023/03/14 09:31:59;;;;;;;;;0.00;0.00;;;;;11.54;80.70;97310.75;5091391;28;8865;-59
2023/03/14 09:34:27;;;;;;;;;0.00;0.00;;;;;11.62;80.55;97319.47;5090890;28;8838;-59
2023/03/14 09:36:55;;;;;;;;;1.00;0.50;;;;;11.73;80.05;97308.28;5091517;28;8842;-60
2023/03/14 09:39:23;;;;;;;;;0.25;0.00;;;;;11.74;79.96;97301.91;5093208;28;8825;-58
2023/03/14 09:41:54;;;;;;;;;0.00;0.00;;;;;11.61;80.35;97307.16;5093570;28;8825;-59
2023/03/14 09:44:21;;;;;;;;;1.00;1.00;;;;;11.43;81.24;97319.25;5093770;28;8830;-59
2023/03/14 09:46:50;;;;;;;;;0.00;0.00;;;;;11.30;81.28;97321.81;5093019;28;8833;-59
2023/03/14 09:49:18;;;;;;;;;0.75;0.00;;;;;11.21;82.10;97326.44;5093094;28;9302;-59
2023/03/14 09:51:46;;;;;;;;;0.00;0.00;;;;;11.15;81.64;97329.03;5093477;28;8838;-59
2023/03/14 09:54:14;;;;;;;;;0.00;0.00;;;;;11.11;81.95;97333.09;5094254;28;8834;-59
2023/03/14 09:56:42;;;;;;;;;1.00;0.00;;;;;11.08;82.44;97349.47;5093728;28;8854;-59
2023/03/14 09:59:10;;;;;;;;;0.00;0.00;;;;;10.99;82.72;97367.38;5093322;28;8984;-58
2023/03/14 10:01:38;;;;;;;;;0.00;0.00;;;;;10.90;82.33;97362.34;5094562;28;8841;-57
2023/03/14 10:04:07;;;;;;;;;0.00;0.00;;;;;10.83;82.74;97375.59;5094852;28;8822;-59
2023/03/14 10:06:35;;;;;;;;;0.00;0.00;;;;;10.76;82.67;97390.66;5095588;28;8821;-57
2023/03/14 10:09:05;;;;;;;;;0.00;0.00;;;;;10.66;83.13;97411.41;5095059;28;8833;-58
2023/03/14 10:11:33;;;;;;;;;0.00;0.00;;;;;10.47;82.61;97422.59;5094121;28;8914;-59
2023/03/14 10:14:01;;;;;;;;;0.00;0.00;;;;;10.19;83.27;97440.19;5095233;28;8817;-57
2023/03/14 10:16:29;;;;;;;;;0.00;0.00;;;;;9.94;83.71;97453.84;5094585;28;8849;-59
2023/03/14 10:18:57;;;;;;;;;0.00;0.00;;;;;9.68;84.67;97464.84;5094671;28;8822;-59
2023/03/14 10:21:25;;;;;;;;;0.00;0.00;;;;;9.51;84.66;97481.06;5094709;28;8856;-59
2023/03/14 10:23:53;;;;;;;;;0.00;0.00;;;;;9.40;84.64;97489.41;5093864;28;8826;-57
2023/03/14 10:26:21;;;;;;;;;0.00;0.00;;;;;9.28;85.02;97496.13;5093244;28;8846;-60
2023/03/14 10:28:50;;;;;;;;;0.00;0.00;;;;;9.18;84.59;97514.94;5092204;28;8857;-59
2023/03/14 10:31:19;;;;;;;;;0.00;0.00;;;;;9.09;84.82;97523.09;5092559;28;9523;-59
2023/03/14 10:33:47;;;;;;;;;0.00;0.00;;;;;9.01;85.30;97547.03;5093374;28;9512;-59
2023/03/14 10:36:15;;;;;;;;;0.00;0.00;;;;;8.92;85.12;97554.19;5093178;28;8852;-58
2023/03/14 10:38:44;;;;;;;;;0.00;0.00;;;;;8.85;85.24;97569.16;5092146;28;8834;-59
2023/03/14 10:41:12;;;;;;;;;0.50;0.00;;;;;8.82;85.39;97579.25;5092619;28;8825;-59
2023/03/14 10:43:40;;;;;;;;;0.50;0.50;;;;;8.78;85.60;97588.53;5094050;28;8826;-59
2023/03/14 10:46:08;;;;;;;;;0.00;0.00;;;;;8.74;85.70;97598.66;5094117;28;8861;-59
2023/03/14 10:48:37;;;;;;;;;0.75;0.00;;;;;8.68;85.73;97607.28;5094737;28;9535;-58
2023/03/14 10:51:05;;;;;;;;;0.50;0.50;;;;;8.64;85.48;97623.72;5093474;28;8830;-59
2023/03/14 10:53:33;;;;;;;;;0.00;0.00;;;;;8.57;85.64;97626.22;5094374;28;8818;-59
2023/03/14 10:56:01;;;;;;;;;1.00;1.00;;;;;8.52;85.93;97627.72;5094310;28;8849;-59
2023/03/14 10:58:29;;;;;;;;;0.00;0.00;;;;;8.46;86.30;97631.88;5093151;28;9364;-60
2023/03/14 11:00:59;;;;;;;;;0.00;0.00;;;;;8.41;85.80;97652.72;5093901;28;8845;-59
2023/03/14 11:03:27;;;;;;;;;0.00;0.00;;;;;8.38;85.84;97674.25;5093723;28;8834;-58
2023/03/14 11:05:55;;;;;;;;;0.00;0.00;;;;;8.37;85.84;97690.34;5093060;28;8839;-59
2023/03/14 11:08:24;;;;;;;;;0.00;0.00;;;;;8.42;85.70;97702.13;5092320;28;9597;-58
2023/03/14 11:10:52;;;;;;;;;0.00;0.00;;;;;8.36;85.52;97705.41;5092438;28;8841;-57
2023/03/14 11:13:20;;;;;;;;;0.00;0.00;;;;;8.29;85.81;97728.28;5092980;28;8822;-59
2023/03/14 11:15:48;;;;;;;;;0.00;0.00;;;;;8.27;86.47;97730.25;5093340;28;8841;-58
2023/03/14 11:18:16;;;;;;;;;0.00;0.00;;;;;8.28;86.22;97747.00;5092828;28;8956;-59
2023/03/14 11:20:44;;;;;;;;;0.00;0.00;;;;;8.25;85.96;97753.47;5093121;28;8858;-57
2023/03/14 11:23:12;;;;;;;;;0.00;0.00;;;;;8.22;85.69;97769.66;5093423;28;8830;-58
2023/03/14 11:25:40;;;;;;;;;3.00;2.50;;;;;8.17;86.03;97784.38;5094041;28;8841;-56
2023/03/14 11:28:08;;;;;;;;;1.00;1.00;;;;;8.17;85.70;97790.53;5093367;28;8857;-56
2023/03/14 11:30:36;;;;;;;;;1.00;0.00;;;;;8.16;85.61;97799.47;5091880;28;8914;-59
2023/03/14 11:33:05;;;;;;;;;0.00;0.00;;;;;8.14;84.92;97811.22;5092363;28;8833;-59
2023/03/14 11:35:33;;;;;;;;;0.00;0.00;;;;;8.08;85.67;97833.88;5092874;28;8846;-57
2023/03/14 11:38:02;;;;;;;;;0.25;0.25;;;;;8.01;85.37;97832.84;5092912;28;8838;-61
2023/03/14 11:40:30;;;;;;;;;1.00;1.00;;;;;7.92;85.28;97846.22;5092049;28;9255;-56
2023/03/14 11:42:58;;;;;;;;;0.25;0.00;;;;;7.84;85.37;97857.56;5093750;28;8922;-58
2023/03/14 11:45:27;;;;;;;;;2.50;1.00;;;;;7.77;85.66;97877.72;5092022;28;8854;-59
2023/03/14 11:47:55;;;;;;;;;0.50;0.50;;;;;7.73;86.01;97894.09;5093159;28;8833;-58
2023/03/14 11:50:22;;;;;;;;;0.00;0.00;;;;;7.67;85.50;97923.03;5091953;28;8846;-58